createdAt,value
2023-04-21T00:02:46.951Z,100144.72
2023-04-21T00:07:03.141Z,100145.44
2023-04-21T00:11:15.603Z,100138.34
2023-04-21T00:15:28.035Z,100137.53
2023-04-21T00:19:40.338Z,100130.72
2023-04-21T00:23:52.803Z,100128.22
2023-04-21T00:28:05.304Z,100137.06
2023-04-21T00:32:17.746Z,100134.53
2023-04-21T00:36:30.098Z,100133.72
2023-04-21T00:40:42.351Z,100131.09
2023-04-21T00:44:57.391Z,100133.69
2023-04-21T00:49:09.957Z,100119.44
2023-04-21T00:53:22.830Z,100118.56
2023-04-21T00:57:40.295Z,100118.44
2023-04-21T01:01:53.324Z,100115.13
2023-04-21T01:06:07.369Z,100123.19
2023-04-21T01:10:22.485Z,100117.88
2023-04-21T01:14:36.298Z,100118.91
2023-04-21T01:18:49.958Z,100118.94
2023-04-21T01:23:02.580Z,100119.84
2023-04-21T01:27:20.188Z,100110.94
2023-04-21T01:31:33.283Z,100112.81
2023-04-21T01:35:46.261Z,100112.72
2023-04-21T01:40:02.557Z,100115.31
2023-04-21T01:44:14.950Z,100106.50
2023-04-21T01:48:27.555Z,100112.69
2023-04-21T01:52:39.899Z,100104.94
2023-04-21T01:56:52.384Z,100105.75
2023-04-21T02:01:06.411Z,100105.91
2023-04-21T02:05:19.201Z,100100.59
2023-04-21T02:09:32.272Z,100096.22
2023-04-21T02:13:44.631Z,100099.78
2023-04-21T02:17:58.736Z,100096.19
2023-04-21T02:22:13.173Z,100106.69
2023-04-21T02:26:25.966Z,100104.00
2023-04-21T02:30:38.966Z,100094.34
2023-04-21T02:34:52.243Z,100106.75
2023-04-21T02:39:04.577Z,100112.91
2023-04-21T02:43:17.468Z,100112.00
2023-04-21T02:47:29.832Z,100117.41
2023-04-21T02:51:42.748Z,100108.66
2023-04-21T02:55:55.856Z,100107.88
2023-04-21T03:00:12.148Z,100106.13
2023-04-21T03:04:25.876Z,100103.41
2023-04-21T03:08:38.341Z,100114.81
2023-04-21T03:12:51.588Z,100110.50
2023-04-21T03:17:03.944Z,100113.81
2023-04-21T03:21:16.945Z,100109.44
2023-04-21T03:25:29.872Z,100105.97
2023-04-21T03:29:42.596Z,100109.31
2023-04-21T03:33:54.988Z,100115.63
2023-04-21T03:38:07.526Z,100115.56
2023-04-21T03:42:20.867Z,100125.28
2023-04-21T03:46:34.384Z,100126.19
2023-04-21T03:50:46.845Z,100129.72
2023-04-21T03:54:59.402Z,100130.50
2023-04-21T03:59:11.807Z,100128.69
2023-04-21T04:03:24.359Z,100133.84
2023-04-21T04:07:36.704Z,100134.63
2023-04-21T04:11:49.198Z,100137.31
2023-04-21T04:16:01.600Z,100145.28
2023-04-21T04:20:13.988Z,100156.69
2023-04-21T04:24:27.037Z,100153.94
2023-04-21T04:28:39.430Z,100166.22
2023-04-21T04:32:53.246Z,100162.59
2023-04-21T04:37:06.968Z,100170.66
2023-04-21T04:41:21.161Z,100171.50
2023-04-21T04:45:33.729Z,100176.78
2023-04-21T04:49:46.170Z,100165.25
2023-04-21T04:53:58.520Z,100172.28
2023-04-21T04:58:10.990Z,100166.00
2023-04-21T05:02:24.675Z,100164.97
2023-04-21T05:06:37.540Z,100174.16
2023-04-21T05:10:49.801Z,100167.91
2023-04-21T05:15:02.197Z,100160.63
2023-04-21T05:19:16.301Z,100163.25
2023-04-21T05:23:30.589Z,100161.31
2023-04-21T05:27:43.716Z,100163.84
2023-04-21T05:31:56.232Z,100157.44
2023-04-21T05:36:11.995Z,100155.22
2023-04-21T05:40:24.483Z,100154.91
2023-04-21T05:44:37.064Z,100152.88
2023-04-21T05:48:49.562Z,100149.69
2023-04-21T05:53:02.691Z,100152.09
2023-04-21T05:57:16.966Z,100148.94
2023-04-21T06:01:29.720Z,100141.56
2023-04-21T06:05:42.207Z,100140.50
2023-04-21T06:09:54.926Z,100148.13
2023-04-21T06:14:08.456Z,100133.66
2023-04-21T06:18:21.150Z,100129.34
2023-04-21T06:22:34.033Z,100127.75
2023-04-21T06:26:46.436Z,100135.66
2023-04-21T06:30:59.751Z,100131.09
2023-04-21T06:35:17.449Z,100135.09
2023-04-21T06:39:29.872Z,100129.69
2023-04-21T06:43:42.862Z,100127.03
2023-04-21T06:47:55.297Z,100125.69
2023-04-21T06:52:07.678Z,100113.50
2023-04-21T06:56:20.059Z,100111.75
2023-04-21T07:00:32.547Z,100110.63
2023-04-21T07:04:45.122Z,100107.38
2023-04-21T07:08:57.766Z,100110.47
2023-04-21T07:13:10.253Z,100106.31
2023-04-21T07:17:23.496Z,100103.94
2023-04-21T07:21:36.545Z,100100.84
2023-04-21T07:25:48.988Z,100108.50
2023-04-21T07:30:01.510Z,100099.28
2023-04-21T07:34:13.919Z,100091.97
2023-04-21T07:38:26.509Z,100090.69
2023-04-21T07:42:39.356Z,100089.13
2023-04-21T07:46:51.852Z,100088.97
2023-04-21T07:51:04.376Z,100096.34
2023-04-21T07:55:16.930Z,100091.03
2023-04-21T07:59:29.251Z,100098.66
2023-04-21T08:03:43.212Z,100104.09
2023-04-21T08:07:55.948Z,100099.22
2023-04-21T08:12:08.414Z,100094.78
2023-04-21T08:16:20.895Z,100100.22
2023-04-21T08:20:33.341Z,100098.59
2023-04-21T08:24:45.774Z,100094.34
2023-04-21T08:28:58.217Z,100092.16
2023-04-21T08:33:14.083Z,100092.53
2023-04-21T08:37:26.509Z,100086.94
2023-04-21T08:41:40.956Z,100084.63
2023-04-21T08:45:56.463Z,100082.28
2023-04-21T08:50:13.822Z,100081.06
2023-04-21T08:54:28.034Z,100087.78
2023-04-21T08:58:42.178Z,100083.00
2023-04-21T09:03:01.739Z,100082.34
2023-04-21T09:07:35.425Z,100083.38
2023-04-21T09:11:57.417Z,100082.25
2023-04-21T09:16:21.965Z,100071.19
2023-04-21T09:20:34.932Z,100065.19
2023-04-21T09:24:49.076Z,100068.34
2023-04-21T09:29:02.136Z,100063.34
2023-04-21T09:33:29.595Z,100060.66
2023-04-21T09:37:46.788Z,100065.84
2023-04-21T09:41:59.705Z,100059.34
2023-04-21T09:46:13.354Z,100055.25
2023-04-21T09:50:54.812Z,100058.97
2023-04-21T09:55:04.724Z,100051.88
2023-04-21T09:59:23.531Z,100047.97
2023-04-21T10:03:40.257Z,100040.47
2023-04-21T10:07:53.960Z,100040.81
2023-04-21T10:12:09.163Z,100044.97
2023-04-21T10:16:23.531Z,100035.38
2023-04-21T10:21:03.398Z,100025.50
2023-04-21T10:25:15.765Z,100021.69
2023-04-21T10:29:47.873Z,100022.63
2023-04-21T10:34:06.935Z,100011.91
2023-04-21T10:38:35.911Z,100013.50
2023-04-21T10:42:49.791Z,100010.63
2023-04-21T10:47:02.195Z,100013.00
2023-04-21T10:51:15.616Z,100019.09
2023-04-21T10:55:29.748Z,100016.03
2023-04-21T10:59:42.582Z,100003.25
2023-04-21T11:03:58.553Z,100003.72
2023-04-21T11:08:15.730Z,100002.72
2023-04-21T11:12:30.617Z,99992.16
2023-04-21T11:16:43.595Z,99986.06
2023-04-21T11:20:56.115Z,99996.91
2023-04-21T11:25:18.914Z,99989.81
2023-04-21T11:29:31.332Z,99984.97
2023-04-21T11:33:43.882Z,99987.88
2023-04-21T11:37:56.776Z,99986.50
2023-04-21T11:42:09.220Z,99984.03
2023-04-21T11:46:28.835Z,99987.59
2023-04-21T11:50:41.413Z,99980.56
2023-04-21T11:55:26.519Z,99982.56
2023-04-21T11:59:39.005Z,99971.28
2023-04-21T12:03:56.027Z,99970.00
2023-04-21T12:08:15.210Z,99960.47
2023-04-21T12:12:27.977Z,99958.34
2023-04-21T12:16:40.422Z,99952.28
2023-04-21T12:20:53.602Z,99948.19
2023-04-21T12:25:06.554Z,99948.66
2023-04-21T12:29:18.856Z,99938.56
2023-04-21T12:33:31.641Z,99939.84
2023-04-21T12:37:45.131Z,99935.41
2023-04-21T12:41:58.821Z,99932.41
2023-04-21T12:46:11.348Z,99930.16
2023-04-21T12:50:23.672Z,99936.94
2023-04-21T12:54:36.357Z,99927.53
2023-04-21T12:58:49.802Z,99930.47
2023-04-21T13:03:02.774Z,99934.66
2023-04-21T13:07:16.502Z,99936.53
2023-04-21T13:11:29.066Z,99929.31
2023-04-21T13:15:41.967Z,99931.56
2023-04-21T13:19:54.390Z,99911.91
2023-04-21T13:24:06.983Z,99906.16
2023-04-21T13:28:19.981Z,99910.69
2023-04-21T13:32:32.337Z,99904.91
2023-04-21T13:36:45.352Z,99912.28
2023-04-21T13:40:59.706Z,99902.91
2023-04-21T13:45:12.550Z,99897.00
2023-04-21T13:49:25.014Z,99901.34
2023-04-21T13:53:37.447Z,99898.16
2023-04-21T13:57:49.797Z,99904.84
2023-04-21T14:02:02.430Z,99903.88
2023-04-21T14:06:15.011Z,99898.88
2023-04-21T14:10:27.605Z,99902.28
2023-04-21T14:14:40.006Z,99902.47
2023-04-21T14:18:53.809Z,99900.19
2023-04-21T14:23:06.195Z,99910.13
2023-04-21T14:27:18.675Z,99910.84
2023-04-21T14:31:31.196Z,99914.03
2023-04-21T14:35:43.621Z,99904.56
2023-04-21T14:39:56.030Z,99901.44
2023-04-21T14:44:08.749Z,99917.53
2023-04-21T14:48:21.738Z,99906.88
2023-04-21T14:52:34.101Z,99911.56
2023-04-21T14:56:46.554Z,99914.19
2023-04-21T15:00:59.419Z,99916.59
2023-04-21T15:05:12.045Z,99907.63
2023-04-21T15:09:24.578Z,99907.03
2023-04-21T15:13:37.083Z,99904.44
2023-04-21T15:17:49.484Z,99905.34
2023-04-21T15:22:01.769Z,99897.00
2023-04-21T15:26:14.144Z,99895.00
2023-04-21T15:30:26.514Z,99894.25
2023-04-21T15:34:38.858Z,99884.00
2023-04-21T15:38:51.296Z,99886.00
2023-04-21T15:43:03.659Z,99870.66
2023-04-21T15:47:17.312Z,99882.59
2023-04-21T15:51:29.694Z,99880.22
2023-04-21T15:55:41.978Z,99884.72
2023-04-21T15:59:54.611Z,99884.22
2023-04-21T16:04:07.263Z,99890.19
2023-04-21T16:08:19.850Z,99890.84
2023-04-21T16:12:32.189Z,99883.00
2023-04-21T16:16:45.671Z,99880.97
2023-04-21T16:20:58.254Z,99875.75
2023-04-21T16:25:14.129Z,99871.63
2023-04-21T16:29:27.048Z,99878.47
2023-04-21T16:33:39.417Z,99873.53
2023-04-21T16:37:51.819Z,99876.97
2023-04-21T16:42:04.402Z,99876.63
2023-04-21T16:46:17.512Z,99887.38
2023-04-21T16:50:29.920Z,99884.31
2023-04-21T16:54:42.354Z,99898.59
2023-04-21T16:58:54.713Z,99899.28
2023-04-21T17:03:07.436Z,99902.84
2023-04-21T17:07:19.948Z,99911.25
2023-04-21T17:11:33.890Z,99909.00
2023-04-21T17:15:46.268Z,99905.88
2023-04-21T17:19:58.600Z,99915.19
2023-04-21T17:24:11.094Z,99918.31
2023-04-21T17:28:23.503Z,99919.59
2023-04-21T17:32:41.157Z,99928.09
2023-04-21T17:36:53.627Z,99930.53
2023-04-21T17:41:07.931Z,99928.16
2023-04-21T17:45:20.522Z,99931.16
2023-04-21T17:49:32.871Z,99921.63
2023-04-21T17:53:46.660Z,99942.31
2023-04-21T17:57:59.288Z,99948.72
2023-04-21T18:02:11.657Z,99949.03
2023-04-21T18:06:24.520Z,99948.56
2023-04-21T18:10:38.233Z,99943.69
2023-04-21T18:14:50.597Z,99954.84
2023-04-21T18:19:03.119Z,99955.13
2023-04-21T18:23:15.487Z,99953.56
2023-04-21T18:27:27.915Z,99953.59
2023-04-21T18:31:40.481Z,99971.44
2023-04-21T18:35:52.855Z,99967.63
2023-04-21T18:40:05.966Z,99965.56
2023-04-21T18:44:18.446Z,99972.81
2023-04-21T18:48:30.852Z,99977.38
2023-04-21T18:52:43.581Z,99995.41
2023-04-21T18:56:55.978Z,99990.13
2023-04-21T19:01:08.703Z,99992.00
2023-04-21T19:05:21.160Z,99998.50
2023-04-21T19:09:33.567Z,99996.78
2023-04-21T19:13:48.334Z,100008.31
2023-04-21T19:18:00.792Z,100001.34
2023-04-21T19:22:13.446Z,100014.59
2023-04-21T19:26:26.541Z,100015.69
2023-04-21T19:30:38.915Z,100021.03
2023-04-21T19:34:51.460Z,100014.91
2023-04-21T19:39:05.740Z,100008.69
2023-04-21T19:43:19.715Z,100008.16
2023-04-21T19:47:36.507Z,100014.53
2023-04-21T19:51:48.826Z,100008.66
2023-04-21T19:56:01.592Z,100002.63
2023-04-21T20:00:15.582Z,100003.56
2023-04-21T20:04:28.010Z,100011.56
2023-04-21T20:08:40.541Z,100013.44
2023-04-21T20:12:53.037Z,100014.47
2023-04-21T20:17:05.580Z,100020.75
2023-04-21T20:21:17.970Z,100019.19
2023-04-21T20:25:30.453Z,100018.28
2023-04-21T20:29:42.969Z,100013.97
2023-04-21T20:33:55.483Z,100025.25
2023-04-21T20:38:08.241Z,100030.94
2023-04-21T20:42:22.059Z,100025.75
2023-04-21T20:46:35.599Z,100027.47
2023-04-21T20:50:49.793Z,100045.22
2023-04-21T20:55:03.649Z,100046.69
2023-04-21T20:59:16.187Z,100044.50
2023-04-21T21:03:29.202Z,100052.72
2023-04-21T21:07:41.673Z,100042.72
2023-04-21T21:11:54.064Z,100043.56
2023-04-21T21:16:06.917Z,100052.72
2023-04-21T21:20:19.391Z,100045.66
2023-04-21T21:24:31.827Z,100044.44
2023-04-21T21:28:44.263Z,100045.69
2023-04-21T21:32:56.809Z,100045.34
2023-04-21T21:37:09.176Z,100050.63
2023-04-21T21:41:21.538Z,100050.81
2023-04-21T21:45:34.228Z,100049.16
2023-04-21T21:49:46.700Z,100056.38
2023-04-21T21:53:59.042Z,100058.31
2023-04-21T21:58:11.469Z,100062.78
2023-04-21T22:02:23.994Z,100055.34
2023-04-21T22:06:37.124Z,100054.72
2023-04-21T22:10:49.569Z,100049.69
2023-04-21T22:15:01.925Z,100051.00
2023-04-21T22:19:14.818Z,100052.25
2023-04-21T22:23:28.800Z,100050.81
2023-04-21T22:27:41.124Z,100053.53
2023-04-21T22:31:53.613Z,100052.94
2023-04-21T22:36:07.282Z,100061.38
2023-04-21T22:40:21.694Z,100055.38
2023-04-21T22:44:34.026Z,100057.50
2023-04-21T22:48:46.825Z,100053.22
2023-04-21T22:52:59.148Z,100055.94
2023-04-21T22:57:11.667Z,100055.81
2023-04-21T23:01:24.199Z,100057.09
2023-04-21T23:05:36.731Z,100047.28
2023-04-21T23:09:49.171Z,100036.63
2023-04-21T23:14:01.464Z,100035.94
2023-04-21T23:18:13.890Z,100041.59
2023-04-21T23:22:26.408Z,100040.97
2023-04-21T23:26:38.972Z,100039.28
2023-04-21T23:30:51.455Z,100041.91
2023-04-21T23:35:05.044Z,100037.56
2023-04-21T23:39:18.531Z,100041.34
2023-04-21T23:43:32.138Z,100033.22
2023-04-21T23:47:45.905Z,100034.25
2023-04-21T23:51:58.745Z,100038.19
2023-04-21T23:56:11.098Z,100034.41
